sensor_id;sensor_type;location;lat;lon;timestamp;pressure;altitude;pressure_sealevel;temperature
29423;BMP180;16399;51.686;8.684;2022-11-21T00:00:59;98600.00;;;1.60
29423;BMP180;16399;51.686;8.684;2022-11-21T00:04:01;98608.00;;;1.60
29423;BMP180;16399;51.686;8.684;2022-11-21T00:07:03;98615.00;;;1.50
29423;BMP180;16399;51.686;8.684;2022-11-21T00:10:06;98614.00;;;1.50
29423;BMP180;16399;51.686;8.684;2022-11-21T00:13:13;98621.00;;;1.40
29423;BMP180;16399;51.686;8.684;2022-11-21T00:16:15;98627.00;;;1.40
29423;BMP180;16399;51.686;8.684;2022-11-21T00:19:18;98628.00;;;1.40
29423;BMP180;16399;51.686;8.684;2022-11-21T00:22:20;98635.00;;;1.30
29423;BMP180;16399;51.686;8.684;2022-11-21T00:25:22;98644.00;;;1.30
29423;BMP180;16399;51.686;8.684;2022-11-21T00:28:25;98646.00;;;1.30
29423;BMP180;16399;51.686;8.684;2022-11-21T00:31:27;98643.00;;;1.30
29423;BMP180;16399;51.686;8.684;2022-11-21T00:34:29;98653.00;;;1.30
29423;BMP180;16399;51.686;8.684;2022-11-21T00:37:32;98658.00;;;1.30
29423;BMP180;16399;51.686;8.684;2022-11-21T00:40:34;98667.00;;;1.30
29423;BMP180;16399;51.686;8.684;2022-11-21T00:43:37;98662.00;;;1.30
29423;BMP180;16399;51.686;8.684;2022-11-21T00:46:39;98658.00;;;1.30
29423;BMP180;16399;51.686;8.684;2022-11-21T00:49:41;98671.00;;;1.30
29423;BMP180;16399;51.686;8.684;2022-11-21T00:52:43;98670.00;;;1.30
29423;BMP180;16399;51.686;8.684;2022-11-21T00:55:47;98663.00;;;1.30
29423;BMP180;16399;51.686;8.684;2022-11-21T00:58:49;98674.00;;;1.40
29423;BMP180;16399;51.686;8.684;2022-11-21T01:01:51;98677.00;;;1.40
29423;BMP180;16399;51.686;8.684;2022-11-21T01:04:54;98671.00;;;1.40
29423;BMP180;16399;51.686;8.684;2022-11-21T01:07:56;98672.00;;;1.40
29423;BMP180;16399;51.686;8.684;2022-11-21T01:11:08;98672.00;;;1.40
29423;BMP180;16399;51.686;8.684;2022-11-21T01:14:08;98683.00;;;1.40
29423;BMP180;16399;51.686;8.684;2022-11-21T01:17:10;98686.00;;;1.40
29423;BMP180;16399;51.686;8.684;2022-11-21T01:20:13;98684.00;;;1.40
29423;BMP180;16399;51.686;8.684;2022-11-21T01:23:15;98686.00;;;1.40
29423;BMP180;16399;51.686;8.684;2022-11-21T01:26:20;98693.00;;;1.40
29423;BMP180;16399;51.686;8.684;2022-11-21T01:29:21;98692.00;;;1.40
29423;BMP180;16399;51.686;8.684;2022-11-21T01:32:24;98706.00;;;1.30
29423;BMP180;16399;51.686;8.684;2022-11-21T01:35:26;98706.00;;;1.30
29423;BMP180;16399;51.686;8.684;2022-11-21T01:38:28;98717.00;;;1.30
29423;BMP180;16399;51.686;8.684;2022-11-21T01:41:33;98715.00;;;1.30
29423;BMP180;16399;51.686;8.684;2022-11-21T01:44:51;98719.00;;;1.30
29423;BMP180;16399;51.686;8.684;2022-11-21T01:47:54;98704.00;;;1.30
29423;BMP180;16399;51.686;8.684;2022-11-21T01:51:00;98705.00;;;1.30
29423;BMP180;16399;51.686;8.684;2022-11-21T01:54:15;98721.00;;;1.40
29423;BMP180;16399;51.686;8.684;2022-11-21T01:57:26;98720.00;;;1.30
29423;BMP180;16399;51.686;8.684;2022-11-21T02:00:27;98718.00;;;1.30
29423;BMP180;16399;51.686;8.684;2022-11-21T02:03:33;98719.00;;;1.30
29423;BMP180;16399;51.686;8.684;2022-11-21T02:06:36;98727.00;;;1.30
29423;BMP180;16399;51.686;8.684;2022-11-21T02:09:41;98722.00;;;1.20
29423;BMP180;16399;51.686;8.684;2022-11-21T02:12:48;98732.00;;;1.20
29423;BMP180;16399;51.686;8.684;2022-11-21T02:15:50;98736.00;;;1.20
29423;BMP180;16399;51.686;8.684;2022-11-21T02:18:52;98740.00;;;1.20
29423;BMP180;16399;51.686;8.684;2022-11-21T02:25:07;98748.00;;;1.20
29423;BMP180;16399;51.686;8.684;2022-11-21T02:28:15;98748.00;;;1.20
29423;BMP180;16399;51.686;8.684;2022-11-21T02:31:18;98760.00;;;1.20
29423;BMP180;16399;51.686;8.684;2022-11-21T02:34:22;98756.00;;;1.20
29423;BMP180;16399;51.686;8.684;2022-11-21T02:37:24;98754.00;;;1.20
29423;BMP180;16399;51.686;8.684;2022-11-21T02:40:30;98767.00;;;1.10
29423;BMP180;16399;51.686;8.684;2022-11-21T02:43:50;98759.00;;;1.10
29423;BMP180;16399;51.686;8.684;2022-11-21T02:46:53;98761.00;;;1.10
29423;BMP180;16399;51.686;8.684;2022-11-21T02:50:08;98765.00;;;1.10
29423;BMP180;16399;51.686;8.684;2022-11-21T02:53:09;98767.00;;;1.10
29423;BMP180;16399;51.686;8.684;2022-11-21T02:56:11;98753.00;;;1.10
29423;BMP180;16399;51.686;8.684;2022-11-21T02:59:14;98757.00;;;1.10
29423;BMP180;16399;51.686;8.684;2022-11-21T03:02:16;98752.00;;;1.20
29423;BMP180;16399;51.686;8.684;2022-11-21T03:05:19;98745.00;;;1.20
29423;BMP180;16399;51.686;8.684;2022-11-21T03:08:21;98738.00;;;1.20
29423;BMP180;16399;51.686;8.684;2022-11-21T03:11:24;98740.00;;;1.20
29423;BMP180;16399;51.686;8.684;2022-11-21T03:14:26;98723.00;;;1.20
29423;BMP180;16399;51.686;8.684;2022-11-21T03:17:28;98720.00;;;1.20
29423;BMP180;16399;51.686;8.684;2022-11-21T03:20:32;98724.00;;;1.20
29423;BMP180;16399;51.686;8.684;2022-11-21T03:23:35;98731.00;;;1.20
29423;BMP180;16399;51.686;8.684;2022-11-21T03:29:51;98739.00;;;1.20
29423;BMP180;16399;51.686;8.684;2022-11-21T03:32:57;98743.00;;;1.20
29423;BMP180;16399;51.686;8.684;2022-11-21T03:35:59;98750.00;;;1.20
29423;BMP180;16399;51.686;8.684;2022-11-21T03:39:02;98758.00;;;1.20
29423;BMP180;16399;51.686;8.684;2022-11-21T03:42:05;98758.00;;;1.20
29423;BMP180;16399;51.686;8.684;2022-11-21T03:45:09;98774.00;;;1.20
29423;BMP180;16399;51.686;8.684;2022-11-21T03:48:11;98772.00;;;1.20
29423;BMP180;16399;51.686;8.684;2022-11-21T03:51:14;98777.00;;;1.20
29423;BMP180;16399;51.686;8.684;2022-11-21T03:54:16;98788.00;;;1.20
29423;BMP180;16399;51.686;8.684;2022-11-21T03:57:18;98795.00;;;1.20
29423;BMP180;16399;51.686;8.684;2022-11-21T04:00:21;98795.00;;;1.20
29423;BMP180;16399;51.686;8.684;2022-11-21T04:03:23;98797.00;;;1.20
29423;BMP180;16399;51.686;8.684;2022-11-21T04:06:25;98788.00;;;1.20
29423;BMP180;16399;51.686;8.684;2022-11-21T04:09:27;98793.00;;;1.30
29423;BMP180;16399;51.686;8.684;2022-11-21T04:12:30;98792.00;;;1.20
29423;BMP180;16399;51.686;8.684;2022-11-21T04:15:32;98799.00;;;1.30
29423;BMP180;16399;51.686;8.684;2022-11-21T04:18:35;98813.00;;;1.30
29423;BMP180;16399;51.686;8.684;2022-11-21T04:21:43;98795.00;;;1.30
29423;BMP180;16399;51.686;8.684;2022-11-21T04:24:45;98803.00;;;1.30
29423;BMP180;16399;51.686;8.684;2022-11-21T04:27:48;98805.00;;;1.30
29423;BMP180;16399;51.686;8.684;2022-11-21T04:30:50;98800.00;;;1.30
29423;BMP180;16399;51.686;8.684;2022-11-21T04:33:53;98813.00;;;1.30
29423;BMP180;16399;51.686;8.684;2022-11-21T04:36:55;98801.00;;;1.30
29423;BMP180;16399;51.686;8.684;2022-11-21T04:39:58;98809.00;;;1.30
29423;BMP180;16399;51.686;8.684;2022-11-21T04:43:00;98797.00;;;1.30
29423;BMP180;16399;51.686;8.684;2022-11-21T04:46:03;98806.00;;;1.30
29423;BMP180;16399;51.686;8.684;2022-11-21T04:49:05;98811.00;;;1.30
29423;BMP180;16399;51.686;8.684;2022-11-21T04:52:07;98797.00;;;1.30
29423;BMP180;16399;51.686;8.684;2022-11-21T04:55:09;98798.00;;;1.30
29423;BMP180;16399;51.686;8.684;2022-11-21T04:58:12;98799.00;;;1.30
29423;BMP180;16399;51.686;8.684;2022-11-21T05:01:14;98794.00;;;1.30
29423;BMP180;16399;51.686;8.684;2022-11-21T05:04:17;98800.00;;;1.30
29423;BMP180;16399;51.686;8.684;2022-11-21T05:07:19;98788.00;;;1.30
29423;BMP180;16399;51.686;8.684;2022-11-21T05:10:21;98795.00;;;1.30
29423;BMP180;16399;51.686;8.684;2022-11-21T05:13:24;98782.00;;;1.30
29423;BMP180;16399;51.686;8.684;2022-11-21T05:16:26;98780.00;;;1.40
29423;BMP180;16399;51.686;8.684;2022-11-21T05:19:28;98786.00;;;1.40
29423;BMP180;16399;51.686;8.684;2022-11-21T05:22:31;98794.00;;;1.40
29423;BMP180;16399;51.686;8.684;2022-11-21T05:25:33;98785.00;;;1.40
29423;BMP180;16399;51.686;8.684;2022-11-21T05:28:35;98775.00;;;1.40
29423;BMP180;16399;51.686;8.684;2022-11-21T05:31:38;98792.00;;;1.40
29423;BMP180;16399;51.686;8.684;2022-11-21T05:34:40;98791.00;;;1.40
29423;BMP180;16399;51.686;8.684;2022-11-21T05:37:42;98787.00;;;1.40
29423;BMP180;16399;51.686;8.684;2022-11-21T05:40:45;98784.00;;;1.40
29423;BMP180;16399;51.686;8.684;2022-11-21T05:43:47;98775.00;;;1.40
29423;BMP180;16399;51.686;8.684;2022-11-21T05:46:51;98770.00;;;1.40
29423;BMP180;16399;51.686;8.684;2022-11-21T05:49:53;98784.00;;;1.40
29423;BMP180;16399;51.686;8.684;2022-11-21T05:53:00;98799.00;;;1.50
29423;BMP180;16399;51.686;8.684;2022-11-21T05:56:06;98810.00;;;1.50
29423;BMP180;16399;51.686;8.684;2022-11-21T05:59:10;98795.00;;;1.50
29423;BMP180;16399;51.686;8.684;2022-11-21T06:02:15;98808.00;;;1.40
29423;BMP180;16399;51.686;8.684;2022-11-21T06:05:35;98802.00;;;1.40
29423;BMP180;16399;51.686;8.684;2022-11-21T06:08:42;98805.00;;;1.50
29423;BMP180;16399;51.686;8.684;2022-11-21T06:11:45;98804.00;;;1.50
29423;BMP180;16399;51.686;8.684;2022-11-21T06:14:47;98804.00;;;1.50
29423;BMP180;16399;51.686;8.684;2022-11-21T06:17:49;98806.00;;;1.40
29423;BMP180;16399;51.686;8.684;2022-11-21T06:20:51;98798.00;;;1.40
29423;BMP180;16399;51.686;8.684;2022-11-21T06:23:56;98800.00;;;1.40
29423;BMP180;16399;51.686;8.684;2022-11-21T06:26:59;98799.00;;;1.40
29423;BMP180;16399;51.686;8.684;2022-11-21T06:30:01;98806.00;;;1.40
29423;BMP180;16399;51.686;8.684;2022-11-21T06:33:04;98812.00;;;1.40
29423;BMP180;16399;51.686;8.684;2022-11-21T06:36:16;98804.00;;;1.40
29423;BMP180;16399;51.686;8.684;2022-11-21T06:39:15;98808.00;;;1.40
29423;BMP180;16399;51.686;8.684;2022-11-21T06:42:17;98808.00;;;1.40
29423;BMP180;16399;51.686;8.684;2022-11-21T06:45:20;98810.00;;;1.40
29423;BMP180;16399;51.686;8.684;2022-11-21T06:48:22;98813.00;;;1.40
29423;BMP180;16399;51.686;8.684;2022-11-21T06:51:24;98796.00;;;1.40
29423;BMP180;16399;51.686;8.684;2022-11-21T06:54:27;98793.00;;;1.50
29423;BMP180;16399;51.686;8.684;2022-11-21T06:57:29;98815.00;;;1.50
29423;BMP180;16399;51.686;8.684;2022-11-21T07:00:32;98803.00;;;1.50
29423;BMP180;16399;51.686;8.684;2022-11-21T07:03:35;98802.00;;;1.50
29423;BMP180;16399;51.686;8.684;2022-11-21T07:06:43;98805.00;;;1.50
29423;BMP180;16399;51.686;8.684;2022-11-21T07:09:46;98805.00;;;1.50
29423;BMP180;16399;51.686;8.684;2022-11-21T07:12:48;98816.00;;;1.60
29423;BMP180;16399;51.686;8.684;2022-11-21T07:16:10;98812.00;;;1.60
29423;BMP180;16399;51.686;8.684;2022-11-21T07:19:15;98815.00;;;1.60
29423;BMP180;16399;51.686;8.684;2022-11-21T07:22:18;98819.00;;;1.60
29423;BMP180;16399;51.686;8.684;2022-11-21T07:25:20;98816.00;;;1.60
29423;BMP180;16399;51.686;8.684;2022-11-21T07:28:23;98808.00;;;1.60
29423;BMP180;16399;51.686;8.684;2022-11-21T07:31:25;98821.00;;;1.60
29423;BMP180;16399;51.686;8.684;2022-11-21T07:34:27;98813.00;;;1.60
29423;BMP180;16399;51.686;8.684;2022-11-21T07:37:30;98817.00;;;1.70
29423;BMP180;16399;51.686;8.684;2022-11-21T07:40:32;98822.00;;;1.70
29423;BMP180;16399;51.686;8.684;2022-11-21T07:43:35;98826.00;;;1.70
29423;BMP180;16399;51.686;8.684;2022-11-21T07:46:37;98821.00;;;1.80
29423;BMP180;16399;51.686;8.684;2022-11-21T07:49:39;98824.00;;;1.80
29423;BMP180;16399;51.686;8.684;2022-11-21T07:52:41;98821.00;;;1.80
29423;BMP180;16399;51.686;8.684;2022-11-21T07:55:46;98823.00;;;1.80
29423;BMP180;16399;51.686;8.684;2022-11-21T07:58:51;98816.00;;;1.90
29423;BMP180;16399;51.686;8.684;2022-11-21T08:01:53;98818.00;;;1.90
29423;BMP180;16399;51.686;8.684;2022-11-21T08:04:55;98812.00;;;1.90
29423;BMP180;16399;51.686;8.684;2022-11-21T08:07:58;98818.00;;;1.90
29423;BMP180;16399;51.686;8.684;2022-11-21T08:11:05;98803.00;;;1.90
29423;BMP180;16399;51.686;8.684;2022-11-21T08:14:07;98821.00;;;2.00
29423;BMP180;16399;51.686;8.684;2022-11-21T08:17:10;98798.00;;;2.00
29423;BMP180;16399;51.686;8.684;2022-11-21T08:20:12;98814.00;;;2.00
29423;BMP180;16399;51.686;8.684;2022-11-21T08:23:15;98798.00;;;2.00
29423;BMP180;16399;51.686;8.684;2022-11-21T08:26:17;98794.00;;;2.10
29423;BMP180;16399;51.686;8.684;2022-11-21T08:29:20;98788.00;;;2.10
29423;BMP180;16399;51.686;8.684;2022-11-21T08:32:23;98793.00;;;2.10
29423;BMP180;16399;51.686;8.684;2022-11-21T08:35:26;98786.00;;;2.10
29423;BMP180;16399;51.686;8.684;2022-11-21T08:38:29;98797.00;;;2.10
29423;BMP180;16399;51.686;8.684;2022-11-21T08:41:31;98787.00;;;2.10
29423;BMP180;16399;51.686;8.684;2022-11-21T08:44:51;98800.00;;;2.20
29423;BMP180;16399;51.686;8.684;2022-11-21T08:47:54;98796.00;;;2.20
29423;BMP180;16399;51.686;8.684;2022-11-21T08:50:57;98798.00;;;2.20
29423;BMP180;16399;51.686;8.684;2022-11-21T08:53:59;98801.00;;;2.20
29423;BMP180;16399;51.686;8.684;2022-11-21T08:57:01;98796.00;;;2.20
29423;BMP180;16399;51.686;8.684;2022-11-21T09:00:04;98788.00;;;2.30
29423;BMP180;16399;51.686;8.684;2022-11-21T09:03:06;98800.00;;;2.40
29423;BMP180;16399;51.686;8.684;2022-11-21T09:06:09;98800.00;;;2.40
29423;BMP180;16399;51.686;8.684;2022-11-21T09:09:20;98795.00;;;2.50
29423;BMP180;16399;51.686;8.684;2022-11-21T09:12:22;98780.00;;;2.50
29423;BMP180;16399;51.686;8.684;2022-11-21T09:15:24;98788.00;;;2.50
29423;BMP180;16399;51.686;8.684;2022-11-21T09:18:45;98786.00;;;2.60
29423;BMP180;16399;51.686;8.684;2022-11-21T09:21:51;98791.00;;;2.60
29423;BMP180;16399;51.686;8.684;2022-11-21T09:24:53;98787.00;;;2.70
29423;BMP180;16399;51.686;8.684;2022-11-21T09:28:01;98784.00;;;2.70
29423;BMP180;16399;51.686;8.684;2022-11-21T09:31:05;98787.00;;;2.70
29423;BMP180;16399;51.686;8.684;2022-11-21T09:34:08;98770.00;;;2.80
29423;BMP180;16399;51.686;8.684;2022-11-21T09:37:10;98771.00;;;2.90
29423;BMP180;16399;51.686;8.684;2022-11-21T09:40:15;98767.00;;;3.00
29423;BMP180;16399;51.686;8.684;2022-11-21T09:46:40;98753.00;;;3.00
29423;BMP180;16399;51.686;8.684;2022-11-21T09:49:44;98753.00;;;3.00
29423;BMP180;16399;51.686;8.684;2022-11-21T09:56:11;98763.00;;;3.10
29423;BMP180;16399;51.686;8.684;2022-11-21T09:59:33;98766.00;;;3.10
29423;BMP180;16399;51.686;8.684;2022-11-21T10:02:35;98753.00;;;3.10
29423;BMP180;16399;51.686;8.684;2022-11-21T10:05:44;98748.00;;;3.20
29423;BMP180;16399;51.686;8.684;2022-11-21T10:09:01;98736.00;;;3.20
29423;BMP180;16399;51.686;8.684;2022-11-21T10:12:31;98722.00;;;3.20
29423;BMP180;16399;51.686;8.684;2022-11-21T10:19:12;98723.00;;;3.10
29423;BMP180;16399;51.686;8.684;2022-11-21T10:26:11;98709.00;;;3.20
29423;BMP180;16399;51.686;8.684;2022-11-21T10:29:49;98718.00;;;3.20
29423;BMP180;16399;51.686;8.684;2022-11-21T10:32:21;98721.00;;;3.30
29423;BMP180;16399;51.686;8.684;2022-11-21T10:35:28;98708.00;;;3.50
29423;BMP180;16399;51.686;8.684;2022-11-21T10:38:29;98722.00;;;3.60
29423;BMP180;16399;51.686;8.684;2022-11-21T10:41:59;98717.00;;;3.70
29423;BMP180;16399;51.686;8.684;2022-11-21T10:45:02;98711.00;;;3.80
29423;BMP180;16399;51.686;8.684;2022-11-21T10:48:20;98699.00;;;3.80
29423;BMP180;16399;51.686;8.684;2022-11-21T10:54:27;98701.00;;;3.80
29423;BMP180;16399;51.686;8.684;2022-11-21T10:57:42;98702.00;;;3.70
29423;BMP180;16399;51.686;8.684;2022-11-21T11:00:55;98695.00;;;3.70
29423;BMP180;16399;51.686;8.684;2022-11-21T11:07:25;98673.00;;;3.80
29423;BMP180;16399;51.686;8.684;2022-11-21T11:10:28;98668.00;;;3.80
29423;BMP180;16399;51.686;8.684;2022-11-21T11:13:31;98656.00;;;3.80
29423;BMP180;16399;51.686;8.684;2022-11-21T11:16:36;98660.00;;;3.90
29423;BMP180;16399;51.686;8.684;2022-11-21T11:19:38;98660.00;;;3.90
29423;BMP180;16399;51.686;8.684;2022-11-21T11:22:40;98641.00;;;4.00
29423;BMP180;16399;51.686;8.684;2022-11-21T11:25:50;98628.00;;;4.10
29423;BMP180;16399;51.686;8.684;2022-11-21T11:28:58;98628.00;;;4.20
29423;BMP180;16399;51.686;8.684;2022-11-21T11:32:14;98615.00;;;4.20
29423;BMP180;16399;51.686;8.684;2022-11-21T11:35:20;98614.00;;;4.20
29423;BMP180;16399;51.686;8.684;2022-11-21T11:38:25;98611.00;;;4.20
29423;BMP180;16399;51.686;8.684;2022-11-21T11:48:30;98588.00;;;4.40
29423;BMP180;16399;51.686;8.684;2022-11-21T11:51:45;98597.00;;;4.50
29423;BMP180;16399;51.686;8.684;2022-11-21T11:54:51;98598.00;;;4.60
29423;BMP180;16399;51.686;8.684;2022-11-21T11:57:55;98593.00;;;4.60
29423;BMP180;16399;51.686;8.684;2022-11-21T12:01:14;98598.00;;;4.60
29423;BMP180;16399;51.686;8.684;2022-11-21T12:04:19;98588.00;;;4.60
29423;BMP180;16399;51.686;8.684;2022-11-21T12:07:32;98588.00;;;4.50
29423;BMP180;16399;51.686;8.684;2022-11-21T12:13:47;98569.00;;;4.50
29423;BMP180;16399;51.686;8.684;2022-11-21T12:16:50;98559.00;;;4.50
29423;BMP180;16399;51.686;8.684;2022-11-21T12:19:54;98560.00;;;4.50
29423;BMP180;16399;51.686;8.684;2022-11-21T12:22:57;98553.00;;;4.60
29423;BMP180;16399;51.686;8.684;2022-11-21T12:33:32;98530.00;;;4.70
29423;BMP180;16399;51.686;8.684;2022-11-21T12:35:59;98530.00;;;4.60
29423;BMP180;16399;51.686;8.684;2022-11-21T12:49:35;98512.00;;;4.50
29423;BMP180;16399;51.686;8.684;2022-11-21T12:52:40;98502.00;;;4.40
29423;BMP180;16399;51.686;8.684;2022-11-21T12:56:05;98517.00;;;4.30
29423;BMP180;16399;51.686;8.684;2022-11-21T12:59:08;98520.00;;;4.20
29423;BMP180;16399;51.686;8.684;2022-11-21T13:05:40;98503.00;;;4.20
29423;BMP180;16399;51.686;8.684;2022-11-21T13:08:45;98494.00;;;4.10
29423;BMP180;16399;51.686;8.684;2022-11-21T13:11:56;98482.00;;;4.10
29423;BMP180;16399;51.686;8.684;2022-11-21T13:15:27;98490.00;;;4.20
29423;BMP180;16399;51.686;8.684;2022-11-21T13:18:38;98469.00;;;4.20
29423;BMP180;16399;51.686;8.684;2022-11-21T13:21:46;98472.00;;;4.20
29423;BMP180;16399;51.686;8.684;2022-11-21T13:31:33;98473.00;;;4.20
29423;BMP180;16399;51.686;8.684;2022-11-21T13:34:37;98437.00;;;4.10
29423;BMP180;16399;51.686;8.684;2022-11-21T13:40:55;98454.00;;;4.20
29423;BMP180;16399;51.686;8.684;2022-11-21T13:47:45;98458.00;;;4.20
29423;BMP180;16399;51.686;8.684;2022-11-21T13:50:51;98455.00;;;4.20
29423;BMP180;16399;51.686;8.684;2022-11-21T13:54:05;98450.00;;;4.20
29423;BMP180;16399;51.686;8.684;2022-11-21T14:00:42;98443.00;;;4.20
29423;BMP180;16399;51.686;8.684;2022-11-21T14:13:37;98427.00;;;4.20
29423;BMP180;16399;51.686;8.684;2022-11-21T14:16:43;98423.00;;;4.10
29423;BMP180;16399;51.686;8.684;2022-11-21T14:19:47;98412.00;;;4.10
29423;BMP180;16399;51.686;8.684;2022-11-21T14:23:04;98409.00;;;4.10
29423;BMP180;16399;51.686;8.684;2022-11-21T14:26:03;98407.00;;;4.10
29423;BMP180;16399;51.686;8.684;2022-11-21T14:29:26;98400.00;;;4.10
29423;BMP180;16399;51.686;8.684;2022-11-21T14:32:30;98396.00;;;4.10
29423;BMP180;16399;51.686;8.684;2022-11-21T14:35:33;98390.00;;;4.10
29423;BMP180;16399;51.686;8.684;2022-11-21T14:38:41;98377.00;;;4.10
29423;BMP180;16399;51.686;8.684;2022-11-21T14:41:53;98361.00;;;4.10
29423;BMP180;16399;51.686;8.684;2022-11-21T14:45:05;98364.00;;;4.00
29423;BMP180;16399;51.686;8.684;2022-11-21T14:47:57;98358.00;;;3.90
29423;BMP180;16399;51.686;8.684;2022-11-21T14:51:00;98355.00;;;3.90
29423;BMP180;16399;51.686;8.684;2022-11-21T14:54:02;98354.00;;;3.70
29423;BMP180;16399;51.686;8.684;2022-11-21T14:57:13;98348.00;;;3.70
29423;BMP180;16399;51.686;8.684;2022-11-21T15:00:18;98350.00;;;3.60
29423;BMP180;16399;51.686;8.684;2022-11-21T15:03:21;98343.00;;;3.50
29423;BMP180;16399;51.686;8.684;2022-11-21T15:06:23;98333.00;;;3.40
29423;BMP180;16399;51.686;8.684;2022-11-21T15:09:27;98326.00;;;3.40
29423;BMP180;16399;51.686;8.684;2022-11-21T15:12:35;98337.00;;;3.30
29423;BMP180;16399;51.686;8.684;2022-11-21T15:15:41;98330.00;;;3.20
29423;BMP180;16399;51.686;8.684;2022-11-21T15:18:44;98335.00;;;3.20
29423;BMP180;16399;51.686;8.684;2022-11-21T15:21:47;98331.00;;;3.10
29423;BMP180;16399;51.686;8.684;2022-11-21T15:24:49;98325.00;;;3.10
29423;BMP180;16399;51.686;8.684;2022-11-21T15:31:17;98325.00;;;3.00
29423;BMP180;16399;51.686;8.684;2022-11-21T15:34:25;98329.00;;;2.90
29423;BMP180;16399;51.686;8.684;2022-11-21T15:37:32;98321.00;;;2.90
29423;BMP180;16399;51.686;8.684;2022-11-21T15:40:32;98314.00;;;2.90
29423;BMP180;16399;51.686;8.684;2022-11-21T15:43:39;98317.00;;;2.90
29423;BMP180;16399;51.686;8.684;2022-11-21T15:46:42;98322.00;;;2.90
29423;BMP180;16399;51.686;8.684;2022-11-21T15:49:46;98317.00;;;2.90
29423;BMP180;16399;51.686;8.684;2022-11-21T15:52:51;98301.00;;;2.90
29423;BMP180;16399;51.686;8.684;2022-11-21T15:55:52;98306.00;;;2.90
29423;BMP180;16399;51.686;8.684;2022-11-21T15:58:55;98305.00;;;2.90
29423;BMP180;16399;51.686;8.684;2022-11-21T16:01:59;98290.00;;;2.90
29423;BMP180;16399;51.686;8.684;2022-11-21T16:05:01;98287.00;;;2.80
29423;BMP180;16399;51.686;8.684;2022-11-21T16:08:04;98295.00;;;2.80
29423;BMP180;16399;51.686;8.684;2022-11-21T16:11:14;98291.00;;;2.80
29423;BMP180;16399;51.686;8.684;2022-11-21T16:14:13;98285.00;;;2.70
29423;BMP180;16399;51.686;8.684;2022-11-21T16:17:15;98292.00;;;2.70
29423;BMP180;16399;51.686;8.684;2022-11-21T16:20:19;98286.00;;;2.70
29423;BMP180;16399;51.686;8.684;2022-11-21T16:23:21;98269.00;;;2.70
29423;BMP180;16399;51.686;8.684;2022-11-21T16:26:23;98263.00;;;2.60
29423;BMP180;16399;51.686;8.684;2022-11-21T16:29:27;98246.00;;;2.60
29423;BMP180;16399;51.686;8.684;2022-11-21T16:32:30;98239.00;;;2.60
29423;BMP180;16399;51.686;8.684;2022-11-21T16:35:32;98243.00;;;2.60
29423;BMP180;16399;51.686;8.684;2022-11-21T16:38:34;98222.00;;;2.60
29423;BMP180;16399;51.686;8.684;2022-11-21T16:41:36;98214.00;;;2.50
29423;BMP180;16399;51.686;8.684;2022-11-21T16:44:40;98223.00;;;2.50
29423;BMP180;16399;51.686;8.684;2022-11-21T16:47:43;98215.00;;;2.50
29423;BMP180;16399;51.686;8.684;2022-11-21T16:50:45;98204.00;;;2.40
29423;BMP180;16399;51.686;8.684;2022-11-21T16:53:49;98202.00;;;2.40
29423;BMP180;16399;51.686;8.684;2022-11-21T16:56:51;98195.00;;;2.40
29423;BMP180;16399;51.686;8.684;2022-11-21T16:59:53;98187.00;;;2.30
29423;BMP180;16399;51.686;8.684;2022-11-21T17:02:56;98187.00;;;2.30
29423;BMP180;16399;51.686;8.684;2022-11-21T17:05:59;98178.00;;;2.30
29423;BMP180;16399;51.686;8.684;2022-11-21T17:09:02;98180.00;;;2.20
29423;BMP180;16399;51.686;8.684;2022-11-21T17:12:05;98163.00;;;2.20
29423;BMP180;16399;51.686;8.684;2022-11-21T17:15:11;98156.00;;;2.20
29423;BMP180;16399;51.686;8.684;2022-11-21T17:18:13;98153.00;;;2.20
29423;BMP180;16399;51.686;8.684;2022-11-21T17:21:16;98127.00;;;2.20
29423;BMP180;16399;51.686;8.684;2022-11-21T17:24:18;98157.00;;;2.20
29423;BMP180;16399;51.686;8.684;2022-11-21T17:27:22;98147.00;;;2.20
29423;BMP180;16399;51.686;8.684;2022-11-21T17:30:24;98144.00;;;2.20
29423;BMP180;16399;51.686;8.684;2022-11-21T17:33:27;98129.00;;;2.10
29423;BMP180;16399;51.686;8.684;2022-11-21T17:36:31;98129.00;;;2.10
29423;BMP180;16399;51.686;8.684;2022-11-21T17:39:35;98098.00;;;2.10
29423;BMP180;16399;51.686;8.684;2022-11-21T17:42:38;98113.00;;;2.10
29423;BMP180;16399;51.686;8.684;2022-11-21T17:45:42;98114.00;;;2.10
29423;BMP180;16399;51.686;8.684;2022-11-21T17:48:46;98106.00;;;2.10
29423;BMP180;16399;51.686;8.684;2022-11-21T17:51:49;98103.00;;;2.10
29423;BMP180;16399;51.686;8.684;2022-11-21T17:54:51;98096.00;;;2.10
29423;BMP180;16399;51.686;8.684;2022-11-21T17:57:53;98086.00;;;2.00
29423;BMP180;16399;51.686;8.684;2022-11-21T18:00:58;98075.00;;;2.00
29423;BMP180;16399;51.686;8.684;2022-11-21T18:04:03;98064.00;;;2.10
29423;BMP180;16399;51.686;8.684;2022-11-21T18:07:06;98075.00;;;2.10
29423;BMP180;16399;51.686;8.684;2022-11-21T18:10:08;98076.00;;;2.10
29423;BMP180;16399;51.686;8.684;2022-11-21T18:13:10;98071.00;;;2.10
29423;BMP180;16399;51.686;8.684;2022-11-21T18:16:15;98067.00;;;2.10
29423;BMP180;16399;51.686;8.684;2022-11-21T18:19:18;98039.00;;;2.10
29423;BMP180;16399;51.686;8.684;2022-11-21T18:22:21;98051.00;;;2.20
29423;BMP180;16399;51.686;8.684;2022-11-21T18:25:23;98038.00;;;2.20
29423;BMP180;16399;51.686;8.684;2022-11-21T18:28:25;98028.00;;;2.30
29423;BMP180;16399;51.686;8.684;2022-11-21T18:31:29;98023.00;;;2.40
29423;BMP180;16399;51.686;8.684;2022-11-21T18:34:31;98027.00;;;2.50
29423;BMP180;16399;51.686;8.684;2022-11-21T18:37:34;98024.00;;;2.60
29423;BMP180;16399;51.686;8.684;2022-11-21T18:40:36;98024.00;;;2.60
29423;BMP180;16399;51.686;8.684;2022-11-21T18:43:39;98021.00;;;2.70
29423;BMP180;16399;51.686;8.684;2022-11-21T18:46:41;98008.00;;;2.70
29423;BMP180;16399;51.686;8.684;2022-11-21T18:49:44;98003.00;;;2.80
29423;BMP180;16399;51.686;8.684;2022-11-21T18:52:46;97998.00;;;2.80
29423;BMP180;16399;51.686;8.684;2022-11-21T18:55:48;97996.00;;;2.90
29423;BMP180;16399;51.686;8.684;2022-11-21T18:58:51;97988.00;;;2.90
29423;BMP180;16399;51.686;8.684;2022-11-21T19:01:54;97982.00;;;3.00
29423;BMP180;16399;51.686;8.684;2022-11-21T19:04:56;97978.00;;;3.00
29423;BMP180;16399;51.686;8.684;2022-11-21T19:07:58;97971.00;;;3.00
29423;BMP180;16399;51.686;8.684;2022-11-21T19:11:02;97970.00;;;3.10
29423;BMP180;16399;51.686;8.684;2022-11-21T19:14:04;97975.00;;;3.10
29423;BMP180;16399;51.686;8.684;2022-11-21T19:17:07;97999.00;;;3.10
29423;BMP180;16399;51.686;8.684;2022-11-21T19:20:10;98008.00;;;3.10
29423;BMP180;16399;51.686;8.684;2022-11-21T19:23:12;97991.00;;;3.20
29423;BMP180;16399;51.686;8.684;2022-11-21T19:26:16;97997.00;;;3.20